Time;durP1;ratioP1;P1;durP2;ratioP2;P2;SDS_P1;SDS_P2;PMS_P1;PMS_P2;Temp;Humidity;BMP_temperature;BMP_pressure;BME280_temperature;BME280_humidity;BME280_pressure;Samples;Min_cycle;Max_cycle;Signal;HPM_P1;HPM_P2
2023/05/29 00:00:51;;;;;;;4.43;3.20;;;;;;;18.14;78.05;96700.63;5006844;28;20204;-70
2023/05/29 00:03:18;;;;;;;4.07;3.37;;;;;;;18.10;78.78;96716.72;5007175;28;20232;-69
2023/05/29 00:05:45;;;;;;;7.33;4.23;;;;;;;18.02;78.52;96713.91;5021691;28;20201;-74
2023/05/29 00:08:12;;;;;;;5.73;3.47;;;;;;;18.10;74.69;96691.34;5007277;28;20212;-70
2023/05/29 00:10:40;;;;;;;4.37;3.57;;;;;;;18.15;74.56;96691.84;5006924;28;20201;-74
2023/05/29 00:13:07;;;;;;;4.20;3.70;;;;;;;18.18;76.68;96703.84;5006956;28;20201;-75
2023/05/29 00:15:34;;;;;;;4.20;3.80;;;;;;;18.31;76.64;96702.72;5006760;28;20215;-73
2023/05/29 00:18:01;;;;;;;4.60;3.20;;;;;;;18.33;77.11;96702.59;5006873;28;20198;-79
2023/05/29 00:20:28;;;;;;;3.87;2.90;;;;;;;18.33;76.83;96713.06;5007245;28;20193;-70
2023/05/29 00:22:56;;;;;;;4.63;3.50;;;;;;;18.22;76.53;96715.72;5006063;28;20774;-69
2023/05/29 00:25:23;;;;;;;5.20;3.53;;;;;;;18.14;76.64;96708.50;5007247;28;20220;-73
2023/05/29 00:27:50;;;;;;;5.87;3.60;;;;;;;18.17;76.25;96710.88;5006343;28;20281;-69
2023/05/29 00:30:18;;;;;;;7.37;3.47;;;;;;;18.23;76.38;96718.25;5006719;28;20222;-69
2023/05/29 00:32:45;;;;;;;4.00;2.87;;;;;;;18.45;75.84;96719.97;5006597;28;20198;-74
2023/05/29 00:35:14;;;;;;;4.90;3.13;;;;;;;18.36;76.00;96723.31;5005256;28;20597;-72
2023/05/29 00:37:41;;;;;;;3.63;3.30;;;;;;;18.32;75.93;96727.16;5006823;28;20283;-75
2023/05/29 00:40:09;;;;;;;5.20;3.33;;;;;;;18.36;75.66;96718.09;5005221;28;20997;-73
2023/05/29 00:42:36;;;;;;;6.20;3.60;;;;;;;18.37;75.23;96727.59;5007175;28;20230;-73
2023/05/29 00:45:03;;;;;;;3.73;3.27;;;;;;;17.97;76.17;96727.34;5005997;28;20239;-75
2023/05/29 00:47:32;;;;;;;3.50;3.10;;;;;;;18.16;75.94;96724.09;4998149;28;20208;-76
2023/05/29 00:49:59;;;;;;;4.70;3.43;;;;;;;18.24;75.66;96719.91;5003666;28;20233;-72
2023/05/29 00:52:29;;;;;;;4.07;3.13;;;;;;;18.20;75.52;96702.75;4990649;28;20202;-75
2023/05/29 00:54:57;;;;;;;6.83;3.83;;;;;;;18.21;75.29;96724.56;5005325;28;20197;-73
2023/05/29 00:57:24;;;;;;;4.67;3.27;;;;;;;17.97;75.16;96716.06;4990618;28;20256;-72
2023/05/29 00:59:51;;;;;;;6.10;3.67;;;;;;;18.02;75.55;96711.28;5005986;28;20197;-71
2023/05/29 01:02:20;;;;;;;5.57;3.37;;;;;;;18.08;74.58;96708.16;5005158;28;20566;-69
2023/05/29 01:04:48;;;;;;;5.20;3.43;;;;;;;18.20;73.61;96707.16;4989154;28;20233;-68
2023/05/29 01:07:15;;;;;;;5.67;3.70;;;;;;;18.27;73.83;96705.72;5005367;28;20194;-71
2023/05/29 01:09:42;;;;;;;5.00;3.63;;;;;;;18.18;73.61;96704.66;4989043;28;20284;-69
2023/05/29 01:12:12;;;;;;;6.97;4.17;;;;;;;18.19;72.71;96700.25;4990204;28;20190;-73
2023/05/29 01:14:52;;;;;;;5.00;3.70;;;;;;;18.05;74.58;96693.53;4990031;28;20216;-69
2023/05/29 01:17:45;;;;;;;5.30;3.80;;;;;;;18.23;72.28;96685.94;4990554;28;20745;-69
2023/05/29 01:20:44;;;;;;;4.57;3.37;;;;;;;18.30;71.61;96692.38;4989982;28;20244;-69
2023/05/29 01:23:32;;;;;;;4.47;3.53;;;;;;;18.29;69.61;96688.91;5004770;28;20222;-69
2023/05/29 01:26:18;;;;;;;5.90;4.57;;;;;;;18.41;70.15;96681.81;5005313;28;20202;-69
2023/05/29 01:28:48;;;;;;;4.60;3.90;;;;;;;18.31;69.66;96681.75;5004696;28;20282;-71
2023/05/29 01:31:25;;;;;;;5.83;4.00;;;;;;;18.35;70.43;96672.69;5004772;28;20202;-69
2023/05/29 01:33:57;;;;;;;4.00;3.60;;;;;;;18.38;71.22;96675.03;4989812;28;20193;-69
2023/05/29 01:36:26;;;;;;;5.70;4.03;;;;;;;18.40;71.48;96664.44;4988244;28;20206;-69
2023/05/29 01:38:55;;;;;;;6.07;4.27;;;;;;;18.34;71.90;96668.38;4988865;28;20202;-70
2023/05/29 01:41:24;;;;;;;6.27;3.67;;;;;;;18.50;71.75;96675.84;4989304;28;20257;-68
2023/05/29 01:43:52;;;;;;;5.23;4.07;;;;;;;18.46;72.17;96677.91;5004616;28;20262;-70
2023/05/29 01:46:21;;;;;;;4.73;4.23;;;;;;;18.47;72.14;96662.97;4989450;28;20198;-69
2023/05/29 01:48:48;;;;;;;4.93;4.43;;;;;;;18.57;71.31;96680.44;4989305;28;20291;-68
2023/05/29 01:51:16;;;;;;;7.90;4.60;;;;;;;18.38;71.71;96688.13;5004560;28;20246;-71
2023/05/29 01:53:44;;;;;;;5.97;4.43;;;;;;;18.36;71.52;96673.50;5003853;28;20221;-69
2023/05/29 01:56:11;;;;;;;8.50;4.30;;;;;;;18.39;71.17;96695.06;5004635;28;20233;-76
2023/05/29 01:58:40;;;;;;;6.13;4.37;;;;;;;18.26;71.11;96690.97;5004210;28;20580;-71
2023/05/29 02:01:47;;;;;;;5.30;4.30;;;;;;;18.36;70.55;96676.13;5003928;28;20194;-78
2023/05/29 02:05:08;;;;;;;5.23;4.43;;;;;;;18.45;69.57;96691.13;4989941;28;20320;-80
2023/05/29 02:08:29;;;;;;;7.17;4.53;;;;;;;18.50;70.32;96678.47;4989380;28;20208;-79
2023/05/29 02:11:49;;;;;;;5.30;4.50;;;;;;;18.38;72.91;96682.09;4989191;28;20202;-73
2023/05/29 02:15:10;;;;;;;7.90;5.03;;;;;;;18.40;72.92;96698.53;4989487;28;20201;-78
2023/05/29 02:18:31;;;;;;;7.07;4.43;;;;;;;18.36;73.32;96686.63;4990106;28;21010;-80
2023/05/29 02:22:12;;;;;;;7.40;5.00;;;;;;;18.43;73.08;96699.13;4988074;28;20212;-75
2023/05/29 02:25:32;;;;;;;12.67;5.90;;;;;;;18.27;73.27;96696.06;4989006;28;20268;-77
2023/05/29 02:28:53;;;;;;;6.83;5.10;;;;;;;18.41;72.30;96684.44;4989226;28;20207;-79
2023/05/29 02:32:14;;;;;;;12.17;6.70;;;;;;;18.44;71.90;96689.47;4989526;28;20195;-71
2023/05/29 02:35:34;;;;;;;8.13;4.93;;;;;;;18.24;71.79;96698.09;4989310;28;20272;-76
2023/05/29 02:38:55;;;;;;;6.13;4.93;;;;;;;17.90;74.05;96692.16;4986509;28;20196;-76
2023/05/29 02:42:18;;;;;;;14.23;5.83;;;;;;;17.85;74.04;96695.13;5003068;28;20201;-72
2023/05/29 02:45:39;;;;;;;6.53;5.37;;;;;;;17.94;74.32;96706.66;5003099;28;20748;-69
2023/05/29 02:49:01;;;;;;;9.40;5.47;;;;;;;18.02;74.39;96704.25;5003848;28;20217;-69
2023/05/29 02:52:22;;;;;;;8.20;5.63;;;;;;;18.17;73.38;96702.19;5003432;28;20284;-72
2023/05/29 02:55:43;;;;;;;8.40;5.73;;;;;;;18.23;73.06;96706.91;4985392;28;20208;-70
2023/05/29 02:59:04;;;;;;;14.23;6.17;;;;;;;18.14;74.35;96710.28;4986526;28;20225;-70
2023/05/29 03:02:25;;;;;;;5.37;4.80;;;;;;;18.14;73.98;96702.41;4986531;28;20192;-69
2023/05/29 03:05:46;;;;;;;5.90;5.20;;;;;;;18.03;74.70;96699.84;5003274;28;20272;-69
2023/05/29 03:09:07;;;;;;;8.87;5.20;;;;;;;18.21;74.43;96700.97;5002156;28;20234;-69
2023/05/29 03:12:29;;;;;;;6.43;5.63;;;;;;;18.22;74.12;96711.31;5002571;28;20207;-70
2023/05/29 03:15:50;;;;;;;7.27;5.40;;;;;;;18.31;73.82;96710.59;5002910;28;20236;-68
2023/05/29 03:19:11;;;;;;;6.70;5.30;;;;;;;18.33;73.64;96718.31;4988936;28;20340;-69
2023/05/29 03:22:32;;;;;;;9.20;5.90;;;;;;;18.38;74.30;96724.03;4989550;28;20590;-69
2023/05/29 03:25:53;;;;;;;5.77;4.90;;;;;;;18.22;74.60;96715.72;4986790;28;20329;-69
2023/05/29 03:29:15;;;;;;;9.00;5.77;;;;;;;18.42;74.24;96720.19;4986201;28;20622;-69
2023/05/29 03:32:36;;;;;;;7.57;6.77;;;;;;;18.43;73.90;96729.72;4971895;28;20211;-69
2023/05/29 03:35:58;;;;;;;10.07;5.93;;;;;;;18.38;74.42;96739.78;4986314;28;20241;-70
2023/05/29 03:39:20;;;;;;;9.30;6.00;;;;;;;18.38;74.02;96726.66;4998017;28;20238;-69
2023/05/29 03:42:42;;;;;;;8.67;6.33;;;;;;;18.47;74.26;96736.41;4998208;28;20199;-70
2023/05/29 03:46:02;;;;;;;8.30;5.93;;;;;;;18.39;74.54;96730.94;4996661;28;20232;-69
2023/05/29 03:49:23;;;;;;;8.10;6.10;;;;;;;18.52;74.12;96739.50;5023974;28;20290;-68
2023/05/29 03:52:44;;;;;;;7.30;5.47;;;;;;;18.62;73.88;96746.50;5004537;28;20205;-70
2023/05/29 03:56:05;;;;;;;8.10;5.20;;;;;;;18.63;73.78;96739.44;5020609;28;20233;-70
2023/05/29 03:59:26;;;;;;;6.73;4.63;;;;;;;18.68;73.64;96750.38;5021208;28;20216;-70
2023/05/29 04:02:47;;;;;;;6.33;5.50;;;;;;;18.71;72.44;96744.91;5006669;28;20560;-68
2023/05/29 04:06:08;;;;;;;7.90;5.20;;;;;;;18.57;72.75;96745.19;5003954;28;20217;-69
2023/05/29 04:09:29;;;;;;;9.70;5.83;;;;;;;18.69;72.12;96752.06;4997644;28;20210;-68
2023/05/29 04:12:51;;;;;;;6.80;6.10;;;;;;;18.80;71.93;96749.38;5003610;28;20207;-68
2023/05/29 04:16:12;;;;;;;9.37;7.10;;;;;;;18.34;75.94;96746.22;5009503;28;20573;-68
2023/05/29 04:19:33;;;;;;;13.23;7.50;;;;;;;18.38;76.06;96731.91;4991060;28;20251;-73
2023/05/29 04:22:56;;;;;;;17.67;8.83;;;;;;;18.54;75.84;96742.81;4985253;28;20207;-78
2023/05/29 04:26:17;;;;;;;10.90;6.77;;;;;;;18.29;76.47;96749.22;4989623;28;20290;-75
2023/05/29 04:29:40;;;;;;;14.73;8.47;;;;;;;18.10;77.85;96742.94;4989369;28;20282;-75
2023/05/29 04:33:01;;;;;;;10.10;7.17;;;;;;;18.02;78.48;96742.72;4988934;28;20204;-69
2023/05/29 04:36:26;;;;;;;13.03;7.67;;;;;;;18.06;78.77;96750.22;4973130;28;20286;-69
2023/05/29 04:39:51;;;;;;;11.90;7.97;;;;;;;17.84;80.39;96748.50;4993115;28;20235;-70
2023/05/29 04:43:12;;;;;;;14.13;8.73;;;;;;;17.78;80.16;96756.81;5018958;28;20683;-68
2023/05/29 04:46:43;;;;;;;9.77;7.87;;;;;;;17.75;80.86;96756.22;5008525;28;20200;-69
2023/05/29 04:50:07;;;;;;;12.33;8.87;;;;;;;18.10;79.50;96748.19;5008104;28;20194;-72
2023/05/29 04:53:28;;;;;;;14.97;8.67;;;;;;;18.18;78.82;96751.00;5010146;28;20201;-73
2023/05/29 04:56:50;;;;;;;14.97;8.67;;;;;;;18.33;78.39;96750.63;5007376;28;20228;-70
2023/05/29 05:00:14;;;;;;;11.73;8.00;;;;;;;18.30;78.90;96753.47;5007856;28;20213;-70
2023/05/29 05:03:34;;;;;;;17.90;9.27;;;;;;;18.39;78.44;96749.28;5009846;28;20224;-69
2023/05/29 05:06:55;;;;;;;16.40;13.37;;;;;;;18.80;76.37;96749.38;5007563;28;20729;-72
2023/05/29 05:10:16;;;;;;;10.87;7.60;;;;;;;18.96;75.41;96756.81;5006828;28;20209;-69
2023/05/29 05:13:37;;;;;;;9.97;7.20;;;;;;;18.76;77.17;96761.06;5007093;28;20197;-70
2023/05/29 05:16:58;;;;;;;15.73;7.40;;;;;;;19.03;74.70;96765.81;5007461;28;20201;-74
2023/05/29 05:20:20;;;;;;;10.47;6.50;;;;;;;19.25;74.37;96770.91;5008591;28;20199;-76
2023/05/29 05:23:42;;;;;;;9.10;6.83;;;;;;;19.15;74.26;96775.28;5011100;28;20205;-73
2023/05/29 05:27:03;;;;;;;9.03;6.80;;;;;;;19.13;74.23;96780.69;5007082;28;20199;-73
2023/05/29 05:30:24;;;;;;;8.00;5.70;;;;;;;19.22;72.79;96786.94;5007288;28;20595;-73
2023/05/29 05:33:45;;;;;;;8.27;6.60;;;;;;;19.35;73.17;96788.44;5007400;28;20253;-76
2023/05/29 05:37:07;;;;;;;12.57;6.93;;;;;;;19.56;72.77;96792.84;5007886;28;20261;-72
2023/05/29 05:40:28;;;;;;;11.00;6.73;;;;;;;19.55;72.47;96804.31;5006627;28;20209;-76
2023/05/29 05:43:54;;;;;;;13.97;7.87;;;;;;;19.46;72.67;96796.25;5006889;28;20206;-71
2023/05/29 05:47:29;;;;;;;11.07;6.83;;;;;;;19.47;72.65;96792.63;4987689;28;20203;-76
2023/05/29 05:50:51;;;;;;;10.67;6.30;;;;;;;19.60;70.00;96794.25;5023207;28;20242;-74
2023/05/29 05:54:12;;;;;;;9.80;5.37;;;;;;;19.91;67.58;96788.81;4990286;28;20237;-77
2023/05/29 05:57:33;;;;;;;8.10;4.23;;;;;;;19.99;67.02;96794.25;5007671;28;20238;-73
2023/05/29 06:00:54;;;;;;;6.33;4.23;;;;;;;19.89;67.22;96793.38;4986565;28;20207;-72
2023/05/29 06:04:15;;;;;;;5.13;3.70;;;;;;;19.97;67.04;96790.13;4992639;28;20758;-73
2023/05/29 06:07:36;;;;;;;6.33;5.00;;;;;;;19.89;67.40;96782.03;4986810;28;20200;-73
2023/05/29 06:10:57;;;;;;;5.23;3.57;;;;;;;19.79;67.53;96782.00;4972281;28;20278;-71
2023/05/29 06:14:20;;;;;;;3.77;3.27;;;;;;;19.44;68.62;96784.19;4986512;28;20295;-70
2023/05/29 06:17:42;;;;;;;4.20;3.67;;;;;;;19.34;69.26;96765.78;4986430;28;20203;-74
2023/05/29 06:21:07;;;;;;;7.97;5.20;;;;;;;19.69;69.07;96788.19;4970458;28;20585;-76
2023/05/29 06:24:32;;;;;;;5.07;4.37;;;;;;;19.82;68.66;96792.28;4972831;28;20281;-78
2023/05/29 06:27:52;;;;;;;7.57;4.33;;;;;;;19.92;67.85;96794.91;4986268;28;21061;-74
2023/05/29 06:31:14;;;;;;;4.13;3.17;;;;;;;19.93;67.57;96794.78;4986100;28;20220;-78
2023/05/29 06:34:35;;;;;;;4.57;3.20;;;;;;;19.99;66.93;96793.44;4969719;28;20750;-73
2023/05/29 06:37:56;;;;;;;4.20;3.47;;;;;;;19.98;67.16;96783.88;4985940;28;20199;-70
2023/05/29 06:41:16;;;;;;;3.60;3.30;;;;;;;20.06;67.46;96789.28;4970228;28;20305;-70
2023/05/29 06:44:37;;;;;;;4.17;3.40;;;;;;;20.29;66.64;96785.50;4984571;28;20333;-70
2023/05/29 06:47:58;;;;;;;5.90;2.80;;;;;;;20.35;66.39;96779.69;4985270;28;20202;-69
2023/05/29 06:51:19;;;;;;;2.83;2.50;;;;;;;20.25;66.94;96797.25;4986209;28;20200;-69
2023/05/29 06:54:46;;;;;;;4.40;2.80;;;;;;;20.14;67.76;96792.06;4986310;28;20255;-75
2023/05/29 06:58:10;;;;;;;4.53;2.43;;;;;;;20.39;65.56;96791.63;4985618;28;20210;-69
2023/05/29 07:01:31;;;;;;;3.17;2.30;;;;;;;20.52;65.02;96800.09;4968907;28;20684;-70
2023/05/29 07:04:51;;;;;;;3.13;2.83;;;;;;;20.53;65.45;96801.72;4986011;28;20231;-70
2023/05/29 07:08:12;;;;;;;3.37;3.00;;;;;;;20.50;65.17;96802.03;4985799;28;20596;-70
2023/05/29 07:11:33;;;;;;;3.13;2.50;;;;;;;20.82;64.96;96805.22;4971531;28;20284;-73
2023/05/29 07:14:55;;;;;;;2.80;2.57;;;;;;;21.00;64.52;96802.69;4984445;28;20279;-70
2023/05/29 07:18:17;;;;;;;3.40;3.10;;;;;;;20.55;65.79;96810.31;4971640;28;20699;-69
2023/05/29 07:21:40;;;;;;;3.63;3.17;;;;;;;20.21;67.17;96809.88;4986044;28;20261;-70
2023/05/29 07:25:03;;;;;;;4.47;3.20;;;;;;;20.17;67.47;96797.06;4985107;28;20223;-75
2023/05/29 07:28:24;;;;;;;4.20;2.77;;;;;;;20.33;67.46;96805.31;4984271;28;20230;-70
2023/05/29 07:31:45;;;;;;;5.33;2.90;;;;;;;20.29;67.16;96819.69;4984595;28;20231;-72
2023/05/29 07:35:06;;;;;;;4.50;3.40;;;;;;;20.28;66.99;96825.91;4969564;28;20199;-74
2023/05/29 07:38:28;;;;;;;3.27;2.83;;;;;;;20.17;67.42;96823.38;4985029;28;20204;-75
2023/05/29 07:41:50;;;;;;;3.50;3.20;;;;;;;19.99;68.09;96815.28;4968083;28;20203;-75
2023/05/29 07:45:11;;;;;;;3.27;2.97;;;;;;;20.03;68.53;96826.38;4968215;28;20246;-73
2023/05/29 07:48:32;;;;;;;2.77;2.57;;;;;;;20.03;68.62;96821.13;4985062;28;20211;-71
2023/05/29 07:51:53;;;;;;;3.57;3.00;;;;;;;19.95;68.85;96826.19;4985728;28;20223;-72
2023/05/29 07:55:15;;;;;;;6.40;5.80;;;;;;;20.01;67.87;96817.78;4984818;28;20294;-70
2023/05/29 07:58:36;;;;;;;4.23;3.67;;;;;;;20.13;68.04;96830.69;4983823;28;20568;-70
2023/05/29 08:01:58;;;;;;;6.37;3.00;;;;;;;20.31;67.18;96830.91;4990851;28;20586;-77
2023/05/29 08:05:48;;;;;;;3.57;3.00;;;;;;;20.11;67.22;96829.16;4990503;28;20676;-77
2023/05/29 08:09:09;;;;;;;3.03;2.10;;;;;;;20.10;67.67;96823.06;4992886;28;20199;-74
2023/05/29 08:12:30;;;;;;;5.83;2.67;;;;;;;20.36;67.36;96836.59;4977055;28;20294;-69
2023/05/29 08:15:12;;;;;;;2.97;1.90;;;;;;;20.03;67.88;96829.81;4990068;28;20207;-70
2023/05/29 08:17:40;;;;;;;2.07;1.60;;;;;;;19.98;68.66;96836.44;4991452;28;20234;-69
2023/05/29 08:20:09;;;;;;;2.40;1.63;;;;;;;19.86;69.14;96840.13;4974965;28;20207;-72
2023/05/29 08:22:37;;;;;;;2.87;1.83;;;;;;;19.87;70.31;96839.16;4992581;28;20293;-70
2023/05/29 08:25:06;;;;;;;1.97;1.87;;;;;;;19.87;71.06;96849.66;4992819;28;20223;-71
2023/05/29 08:27:33;;;;;;;4.93;4.23;;;;;;;19.88;73.79;96839.06;5007297;28;20230;-70
2023/05/29 08:30:00;;;;;;;3.83;2.77;;;;;;;19.96;73.62;96831.34;4992910;28;20192;-69
2023/05/29 08:32:31;;;;;;;2.70;2.23;;;;;;;19.97;74.38;96837.44;5007063;28;20575;-72
2023/05/29 08:34:58;;;;;;;3.17;2.87;;;;;;;20.08;74.47;96835.53;5007963;28;20204;-69
2023/05/29 08:37:31;;;;;;;3.63;2.90;;;;;;;20.10;74.33;96833.59;4991115;28;20229;-71
2023/05/29 08:39:58;;;;;;;3.37;2.57;;;;;;;20.18;73.70;96825.88;4992769;28;20199;-70
2023/05/29 08:42:33;;;;;;;2.30;2.10;;;;;;;20.07;73.69;96817.25;4992522;28;20195;-72
2023/05/29 08:45:04;;;;;;;2.80;2.00;;;;;;;20.06;72.83;96837.44;4990418;28;20712;-70
2023/05/29 08:47:33;;;;;;;1.97;1.77;;;;;;;20.19;72.87;96831.97;4992663;28;20816;-69
2023/05/29 08:50:02;;;;;;;2.00;1.90;;;;;;;20.30;73.85;96837.13;4992094;28;20253;-70
2023/05/29 08:52:37;;;;;;;2.00;1.50;;;;;;;20.09;71.21;96829.28;5006968;28;20208;-69
2023/05/29 08:55:05;;;;;;;3.83;1.90;;;;;;;20.10;71.41;96816.97;4990678;28;20207;-73
2023/05/29 08:57:35;;;;;;;1.97;1.87;;;;;;;20.14;72.33;96821.00;4992398;28;20202;-70
2023/05/29 09:00:12;;;;;;;3.37;2.30;;;;;;;20.32;72.69;96823.88;4974898;28;20235;-70
2023/05/29 09:02:40;;;;;;;3.20;1.97;;;;;;;20.34;71.85;96828.00;4990215;28;20195;-72
2023/05/29 09:05:08;;;;;;;3.33;1.97;;;;;;;20.37;72.28;96835.63;5007450;28;20235;-70
2023/05/29 09:07:39;;;;;;;2.90;2.30;;;;;;;20.38;71.55;96839.91;4991693;28;20194;-71
2023/05/29 09:10:08;;;;;;;2.93;2.10;;;;;;;20.29;69.89;96830.22;4989880;28;20204;-70
2023/05/29 09:12:36;;;;;;;2.33;2.13;;;;;;;20.34;69.05;96837.72;4987547;28;20195;-70
2023/05/29 09:15:18;;;;;;;2.90;1.80;;;;;;;20.33;69.11;96831.59;4989177;28;20703;-70
2023/05/29 09:17:57;;;;;;;2.30;1.80;;;;;;;20.35;70.21;96828.84;4987881;28;20208;-72
2023/05/29 09:20:25;;;;;;;2.97;1.77;;;;;;;20.40;69.81;96826.66;4988452;28;20196;-72
2023/05/29 09:22:57;;;;;;;1.97;1.77;;;;;;;20.44;69.54;96821.00;4972012;28;20650;-70
2023/05/29 09:25:27;;;;;;;2.17;1.60;;;;;;;20.45;68.48;96820.00;4988885;28;20896;-70
2023/05/29 09:27:57;;;;;;;4.13;2.13;;;;;;;20.47;69.37;96820.69;5003761;28;20598;-76
2023/05/29 09:30:51;;;;;;;2.27;2.07;;;;;;;20.37;69.35;96817.22;4987529;28;20387;-74
2023/05/29 09:33:18;;;;;;;1.90;1.80;;;;;;;20.32;70.57;96823.88;4985800;28;20207;-72
2023/05/29 09:35:47;;;;;;;2.07;1.80;;;;;;;20.17;70.27;96818.91;5003897;28;20646;-70
2023/05/29 09:38:16;;;;;;;2.53;1.80;;;;;;;20.25;70.42;96820.94;4988629;28;20748;-69
2023/05/29 09:41:05;;;;;;;1.70;1.60;;;;;;;20.25;70.73;96816.50;4988959;28;20195;-71
2023/05/29 09:43:32;;;;;;;2.10;1.70;;;;;;;20.35;70.63;96821.78;5003502;28;20230;-71
2023/05/29 09:46:01;;;;;;;2.50;1.90;;;;;;;20.31;70.89;96820.41;4988075;28;20307;-73
2023/05/29 09:48:30;;;;;;;1.70;1.60;;;;;;;20.24;70.83;96822.72;4987123;28;20210;-69
2023/05/29 09:50:58;;;;;;;3.30;1.80;;;;;;;20.24;71.08;96816.63;4954804;28;20287;-71
2023/05/29 09:53:28;;;;;;;4.30;2.10;;;;;;;20.25;70.06;96806.00;4988956;28;20211;-71
2023/05/29 09:56:00;;;;;;;3.97;2.50;;;;;;;20.17;70.37;96807.59;4987276;28;20227;-74
2023/05/29 09:58:28;;;;;;;3.30;2.50;;;;;;;20.38;70.25;96804.91;5003408;28;20210;-71
2023/05/29 10:00:57;;;;;;;4.30;2.13;;;;;;;20.52;69.33;96812.41;4987763;28;20203;-71
2023/05/29 10:03:26;;;;;;;4.47;3.00;;;;;;;20.64;69.52;96806.88;5002743;28;20784;-73
2023/05/29 10:05:58;;;;;;;8.30;3.00;;;;;;;20.67;68.55;96801.31;5003509;28;20249;-71
2023/05/29 10:08:26;;;;;;;8.40;2.40;;;;;;;20.83;68.23;96801.63;4986591;28;20334;-70
2023/05/29 10:11:04;;;;;;;10.20;3.00;;;;;;;20.97;67.98;96797.72;4988483;28;20279;-69
2023/05/29 10:13:37;;;;;;;7.50;2.60;;;;;;;21.06;67.30;96771.41;4986467;28;20250;-70
2023/05/29 10:16:10;;;;;;;5.47;2.50;;;;;;;21.37;66.49;96779.13;4986410;28;20185;-71
2023/05/29 10:18:41;;;;;;;3.93;2.27;;;;;;;21.68;65.60;96760.28;4986690;28;20213;-72
2023/05/29 10:21:12;;;;;;;10.77;3.30;;;;;;;21.70;65.00;96770.72;4985842;28;20206;-71
2023/05/29 10:23:43;;;;;;;5.80;2.30;;;;;;;21.81;65.37;96762.59;4986068;28;20709;-70
2023/05/29 10:26:31;;;;;;;3.77;2.00;;;;;;;21.85;65.41;96762.19;4986283;28;20248;-72
2023/05/29 10:29:22;;;;;;;5.20;1.60;;;;;;;21.96;66.41;96750.63;4987618;28;20203;-71
2023/05/29 10:32:04;;;;;;;4.00;1.57;;;;;;;22.28;63.15;96758.06;4993302;28;20583;-73
2023/05/29 10:35:00;;;;;;;2.17;1.20;;;;;;;21.89;63.77;96752.19;5007066;28;20229;-70
2023/05/29 10:38:20;;;;;;;1.70;1.50;;;;;;;21.93;63.65;96740.34;4986763;28;20691;-71
2023/05/29 10:41:26;;;;;;;2.30;1.77;;;;;;;22.01;64.03;96726.47;4987823;28;20201;-71
2023/05/29 10:44:30;;;;;;;3.20;1.93;;;;;;;22.16;63.47;96725.78;4985609;28;20219;-70
2023/05/29 10:47:51;;;;;;;3.63;2.20;;;;;;;22.28;61.69;96729.03;4985363;28;20225;-71
2023/05/29 10:51:15;;;;;;;2.80;1.63;;;;;;;22.42;60.98;96736.47;4989631;28;20201;-76
2023/05/29 10:53:56;;;;;;;3.33;2.13;;;;;;;22.02;61.96;96733.38;5000299;28;20708;-69
2023/05/29 10:56:29;;;;;;;1.97;1.63;;;;;;;21.79;63.16;96717.09;5003742;28;20235;-72
2023/05/29 10:59:01;;;;;;;2.10;1.90;;;;;;;21.83;62.30;96723.75;5007505;28;20215;-69
2023/05/29 11:01:30;;;;;;;3.77;2.37;;;;;;;22.01;61.80;96727.25;5005979;28;20198;-70
2023/05/29 11:04:17;;;;;;;2.97;2.67;;;;;;;22.11;62.64;96730.69;5004918;28;20688;-69
2023/05/29 11:06:44;;;;;;;2.07;1.93;;;;;;;22.21;63.20;96720.91;5006561;28;20230;-69
2023/05/29 11:09:34;;;;;;;5.47;2.17;;;;;;;22.11;62.18;96721.94;4989426;28;20197;-73
2023/05/29 11:12:35;;;;;;;3.40;2.20;;;;;;;22.28;61.81;96734.31;4990273;28;20601;-70
2023/05/29 11:15:13;;;;;;;3.97;2.13;;;;;;;22.58;61.82;96737.47;4990064;28;20236;-72
2023/05/29 11:17:40;;;;;;;2.77;2.30;;;;;;;22.46;61.42;96743.91;5004901;28;20223;-75
2023/05/29 11:20:43;;;;;;;4.77;2.83;;;;;;;22.53;61.14;96733.56;5007252;28;20685;-71
2023/05/29 11:23:17;;;;;;;4.83;3.00;;;;;;;22.80;61.85;96746.72;5002598;28;20786;-73
2023/05/29 11:25:47;;;;;;;3.43;2.77;;;;;;;22.54;59.93;96712.31;5006231;28;20721;-71
2023/05/29 11:28:14;;;;;;;2.97;2.50;;;;;;;22.80;60.69;96732.69;5007539;28;20288;-75
2023/05/29 11:30:46;;;;;;;3.40;2.80;;;;;;;22.42;62.15;96720.63;5004959;28;20215;-71
2023/05/29 11:33:25;;;;;;;3.80;3.23;;;;;;;22.66;61.60;96739.34;5006014;28;20201;-71
2023/05/29 11:36:00;;;;;;;4.00;2.60;;;;;;;22.19;62.03;96736.06;4988383;28;20199;-70
2023/05/29 11:38:28;;;;;;;6.60;2.80;;;;;;;22.26;60.86;96720.44;5006449;28;20248;-71
2023/05/29 11:41:00;;;;;;;4.67;2.70;;;;;;;22.32;60.93;96762.88;5005998;28;20231;-72
2023/05/29 11:43:28;;;;;;;3.77;2.57;;;;;;;21.97;61.34;96748.81;5006668;28;20238;-72
2023/05/29 11:45:55;;;;;;;4.70;2.90;;;;;;;22.18;62.52;96746.72;4973263;28;20239;-71
2023/05/29 11:48:23;;;;;;;3.27;2.70;;;;;;;22.17;59.60;96767.03;5005047;28;20292;-71
2023/05/29 11:50:52;;;;;;;3.77;3.07;;;;;;;21.92;60.00;96746.63;4988790;28;20546;-74
2023/05/29 11:53:19;;;;;;;2.93;2.60;;;;;;;22.02;60.73;96750.03;5006560;28;20193;-75
2023/05/29 11:55:48;;;;;;;4.27;2.90;;;;;;;21.76;60.89;96754.31;5006139;28;20224;-72
2023/05/29 11:58:17;;;;;;;3.77;3.07;;;;;;;21.68;62.32;96746.28;4989372;28;20231;-70
2023/05/29 12:00:50;;;;;;;5.63;3.27;;;;;;;22.04;61.10;96755.16;5004785;28;20199;-72
2023/05/29 12:03:18;;;;;;;4.33;2.93;;;;;;;21.73;61.74;96754.59;4989398;28;20195;-74
2023/05/29 12:05:49;;;;;;;6.13;3.40;;;;;;;21.88;62.20;96747.06;4988781;28;20239;-74
2023/05/29 12:08:25;;;;;;;3.67;2.50;;;;;;;21.86;62.06;96741.94;5006150;28;20211;-73
2023/05/29 12:11:04;;;;;;;3.47;3.13;;;;;;;21.90;61.51;96745.94;5007001;28;20207;-73
2023/05/29 12:13:34;;;;;;;7.33;3.17;;;;;;;21.90;61.18;96739.81;5003943;28;20220;-72
2023/05/29 12:16:04;;;;;;;5.33;3.03;;;;;;;21.47;62.72;96745.69;5004841;28;20197;-72
2023/05/29 12:18:31;;;;;;;4.07;3.20;;;;;;;21.25;62.96;96738.09;5004269;28;20203;-77
2023/05/29 12:21:00;;;;;;;4.00;3.43;;;;;;;21.27;62.53;96742.25;5006208;28;20202;-74
2023/05/29 12:23:29;;;;;;;7.57;4.20;;;;;;;21.51;61.51;96710.16;5004711;28;20275;-74
2023/05/29 12:25:58;;;;;;;7.10;3.67;;;;;;;21.79;61.71;96740.81;5004183;28;20321;-71
2023/05/29 12:28:26;;;;;;;10.27;4.23;;;;;;;21.68;61.39;96735.72;5005627;28;20734;-70
2023/05/29 12:30:59;;;;;;;5.27;3.60;;;;;;;21.71;62.40;96738.91;5005196;28;20617;-74
2023/05/29 12:33:33;;;;;;;4.13;3.27;;;;;;;21.79;61.29;96754.00;5004817;28;20201;-71
2023/05/29 12:36:10;;;;;;;3.70;3.23;;;;;;;21.77;62.33;96748.88;5005328;28;20197;-70
2023/05/29 12:38:51;;;;;;;5.03;3.87;;;;;;;21.79;61.67;96751.38;5004358;28;20277;-71
2023/05/29 12:41:39;;;;;;;4.73;3.37;;;;;;;21.72;61.66;96752.94;5004641;28;20210;-72
2023/05/29 12:44:08;;;;;;;5.53;4.13;;;;;;;21.44;62.54;96745.94;5004980;28;20621;-71
2023/05/29 12:46:38;;;;;;;3.70;3.40;;;;;;;21.65;62.50;96739.50;5008464;28;20750;-73
2023/05/29 12:49:23;;;;;;;6.10;3.53;;;;;;;21.90;62.00;96743.31;5009057;28;20197;-72
2023/05/29 12:51:52;;;;;;;3.70;3.30;;;;;;;21.81;61.42;96733.59;4991640;28;20201;-73
2023/05/29 12:54:19;;;;;;;4.30;3.77;;;;;;;21.65;63.14;96741.31;5024798;28;20292;-71
2023/05/29 12:56:46;;;;;;;6.10;3.63;;;;;;;21.48;63.01;96732.34;5024265;28;20739;-72
2023/05/29 12:59:15;;;;;;;5.30;3.73;;;;;;;21.48;62.53;96739.41;5025041;28;20199;-70
2023/05/29 13:01:42;;;;;;;5.90;3.60;;;;;;;21.53;64.19;96742.47;5009060;28;20191;-74
2023/05/29 13:04:12;;;;;;;4.07;3.47;;;;;;;21.27;64.35;96738.81;4992004;28;20211;-73
2023/05/29 13:06:40;;;;;;;4.40;4.00;;;;;;;20.92;66.67;96724.44;5008670;28;20687;-72
2023/05/29 13:09:08;;;;;;;4.30;3.43;;;;;;;20.50;68.38;96725.72;4991749;28;20207;-71
2023/05/29 13:11:36;;;;;;;4.90;3.50;;;;;;;20.59;69.73;96734.56;5009093;28;20232;-73
2023/05/29 13:14:06;;;;;;;4.00;3.50;;;;;;;20.46;71.15;96744.53;5007423;28;20625;-70
2023/05/29 13:16:34;;;;;;;5.40;3.83;;;;;;;20.41;71.87;96729.16;5008315;28;20196;-70
2023/05/29 13:19:02;;;;;;;4.07;3.30;;;;;;;20.34;72.31;96738.56;5008168;28;20202;-74
2023/05/29 13:21:29;;;;;;;5.07;3.47;;;;;;;20.27;73.81;96740.94;5008028;28;20203;-76
2023/05/29 13:23:56;;;;;;;5.53;3.77;;;;;;;20.02;75.17;96730.91;5008729;28;20214;-73
2023/05/29 13:26:23;;;;;;;4.47;3.70;;;;;;;20.34;74.29;96748.28;5008549;28;20235;-73
2023/05/29 13:28:51;;;;;;;6.97;3.97;;;;;;;20.33;76.01;96726.41;5008090;28;20207;-75